Time;durP1;ratioP1;P1;durP2;ratioP2;P2;SDS_P1;SDS_P2;PMS_P1;PMS_P2;Temp;Humidity;BMP_temperature;BMP_pressure;BME280_temperature;BME280_humidity;BME280_pressure;Samples;Min_cycle;Max_cycle;Signal;HPM_P1;HPM_P2
2021/05/17 00:02:07;;;;;;;3.97;3.50;;;;;;;;;;5096108;28;20016;-63
2021/05/17 00:04:34;;;;;;;3.22;3.00;;;;;;;;;;5095733;28;20028;-63
2021/05/17 00:07:01;;;;;;;2.72;2.53;;;;;;;;;;5095806;28;20030;-62
2021/05/17 00:09:27;;;;;;;3.20;2.90;;;;;;;;;;5095668;28;20028;-63
2021/05/17 00:11:52;;;;;;;3.22;2.90;;;;;;;;;;5095841;28;20018;-63
2021/05/17 00:14:19;;;;;;;3.05;2.65;;;;;;;;;;5095728;28;20032;-62
2021/05/17 00:16:45;;;;;;;2.80;2.60;;;;;;;;;;5095823;28;20032;-62
2021/05/17 00:19:10;;;;;;;3.10;2.83;;;;;;;;;;5095564;28;20485;-62
2021/05/17 00:21:36;;;;;;;2.90;2.70;;;;;;;;;;5094347;28;20115;-62
2021/05/17 00:24:02;;;;;;;3.08;2.85;;;;;;;;;;5095645;28;20028;-62
2021/05/17 00:26:28;;;;;;;3.13;2.92;;;;;;;;;;5095386;28;20024;-62
2021/05/17 00:28:53;;;;;;;3.30;3.00;;;;;;;;;;5095309;28;20039;-63
2021/05/17 00:31:19;;;;;;;3.10;2.80;;;;;;;;;;5095475;28;20065;-62
2021/05/17 00:33:44;;;;;;;2.65;2.45;;;;;;;;;;5094991;28;20044;-63
2021/05/17 00:36:10;;;;;;;3.10;2.90;;;;;;;;;;5094418;28;20028;-62
2021/05/17 00:38:36;;;;;;;4.22;2.60;;;;;;;;;;5094921;28;20032;-62
2021/05/17 00:41:01;;;;;;;2.80;2.65;;;;;;;;;;5095045;28;20099;-62
2021/05/17 00:43:37;;;;;;;2.78;2.17;;;;;;;;;;5094108;28;20520;-62
2021/05/17 00:46:04;;;;;;;2.75;2.55;;;;;;;;;;5093875;28;20447;-63
2021/05/17 00:48:30;;;;;;;4.10;2.45;;;;;;;;;;5095073;28;20024;-63
2021/05/17 00:50:56;;;;;;;3.17;2.58;;;;;;;;;;5095156;28;20551;-63
2021/05/17 00:53:21;;;;;;;2.67;2.50;;;;;;;;;;5094989;28;20027;-63
2021/05/17 00:55:47;;;;;;;2.75;2.55;;;;;;;;;;5094729;28;20454;-63
2021/05/17 00:58:13;;;;;;;2.83;2.63;;;;;;;;;;5094755;28;20047;-62
2021/05/17 01:00:39;;;;;;;2.63;2.42;;;;;;;;;;5094209;28;20027;-62
2021/05/17 01:03:06;;;;;;;3.10;2.90;;;;;;;;;;5093679;28;20063;-62
2021/05/17 01:05:38;;;;;;;3.13;2.83;;;;;;;;;;5093631;28;20047;-63
2021/05/17 01:08:05;;;;;;;3.70;2.78;;;;;;;;;;5093614;28;20036;-62
2021/05/17 01:10:31;;;;;;;3.20;2.90;;;;;;;;;;5095064;28;20039;-62
2021/05/17 01:12:57;;;;;;;2.90;2.70;;;;;;;;;;5094750;28;20028;-62
2021/05/17 01:15:24;;;;;;;3.55;2.58;;;;;;;;;;5093343;28;20024;-63
2021/05/17 01:17:51;;;;;;;2.95;2.75;;;;;;;;;;5094581;28;20046;-62
2021/05/17 01:20:18;;;;;;;3.45;3.00;;;;;;;;;;5093426;28;20027;-62
2021/05/17 01:23:01;;;;;;;2.97;2.78;;;;;;;;;;5093501;28;20111;-62
2021/05/17 01:25:30;;;;;;;3.45;2.50;;;;;;;;;;5093198;28;20363;-62
2021/05/17 01:27:57;;;;;;;3.00;2.70;;;;;;;;;;5094569;28;20020;-62
2021/05/17 01:30:24;;;;;;;3.35;3.05;;;;;;;;;;5092874;28;20047;-62
2021/05/17 01:32:54;;;;;;;2.92;2.63;;;;;;;;;;5094299;28;20020;-62
2021/05/17 01:35:20;;;;;;;;;;;;;;;;;;5093272;28;20123;-62
2021/05/17 01:37:47;;;;;;;2.50;2.30;;;;;;;;;;5094506;28;20014;-62
2021/05/17 01:40:18;;;;;;;4.20;2.10;;;;;;;;;;5093295;28;20488;-61
2021/05/17 01:42:44;;;;;;;3.88;2.10;;;;;;;;;;5093028;28;20032;-62
2021/05/17 01:45:10;;;;;;;2.38;2.17;;;;;;;;;;5093121;28;20542;-62
2021/05/17 01:47:44;;;;;;;2.13;2.03;;;;;;;;;;5093130;28;20024;-62
2021/05/17 01:50:11;;;;;;;2.15;2.05;;;;;;;;;;5093082;28;20024;-63
2021/05/17 01:52:37;;;;;;;2.17;1.95;;;;;;;;;;5092641;28;20016;-62
2021/05/17 01:55:07;;;;;;;2.22;2.13;;;;;;;;;;5093873;28;20458;-63
2021/05/17 01:57:33;;;;;;;2.83;2.50;;;;;;;;;;5092460;28;20020;-62
2021/05/17 01:59:59;;;;;;;2.67;2.15;;;;;;;;;;5092681;28;20093;-62
2021/05/17 02:02:26;;;;;;;2.30;2.20;;;;;;;;;;5092735;28;20020;-63
2021/05/17 02:04:54;;;;;;;2.33;2.13;;;;;;;;;;5092748;28;20107;-63
2021/05/17 02:07:21;;;;;;;3.03;2.58;;;;;;;;;;5092755;28;20024;-63
2021/05/17 02:09:52;;;;;;;2.60;2.40;;;;;;;;;;5092562;28;20043;-63
2021/05/17 02:12:22;;;;;;;3.35;3.05;;;;;;;;;;5092703;28;20056;-63
2021/05/17 02:14:52;;;;;;;2.45;2.10;;;;;;;;;;5092550;28;20039;-62
2021/05/17 02:17:22;;;;;;;3.53;2.53;;;;;;;;;;5092515;28;20115;-63
2021/05/17 02:19:48;;;;;;;2.83;2.63;;;;;;;;;;5093923;28;20515;-62
2021/05/17 02:22:18;;;;;;;2.92;2.20;;;;;;;;;;5092363;28;20032;-63
2021/05/17 02:24:53;;;;;;;2.67;2.22;;;;;;;;;;5092494;28;20031;-63
2021/05/17 02:27:19;;;;;;;2.42;2.22;;;;;;;;;;5092403;28;20032;-63
2021/05/17 02:29:45;;;;;;;2.40;2.20;;;;;;;;;;5092313;28;20020;-63
2021/05/17 02:32:22;;;;;;;2.22;2.13;;;;;;;;;;5093434;28;20028;-63
2021/05/17 02:34:49;;;;;;;3.30;2.40;;;;;;;;;;5091922;28;20044;-62
2021/05/17 02:37:15;;;;;;;2.17;2.00;;;;;;;;;;5092060;28;20512;-63
2021/05/17 02:39:41;;;;;;;2.47;2.28;;;;;;;;;;5093396;28;20032;-63
2021/05/17 02:42:09;;;;;;;2.47;2.28;;;;;;;;;;5092054;28;20016;-64
2021/05/17 02:44:35;;;;;;;2.50;2.30;;;;;;;;;;5095351;28;20028;-64
2021/05/17 02:47:00;;;;;;;2.53;2.05;;;;;;;;;;5096328;28;20016;-62
2021/05/17 02:49:33;;;;;;;2.35;2.17;;;;;;;;;;5097236;28;20063;-63
2021/05/17 02:51:59;;;;;;;2.25;2.15;;;;;;;;;;5097528;28;20031;-62
2021/05/17 02:54:26;;;;;;;2.80;2.60;;;;;;;;;;5097484;28;20016;-62
2021/05/17 02:56:58;;;;;;;2.35;2.25;;;;;;;;;;5097480;28;20034;-62
2021/05/17 02:59:31;;;;;;;2.65;2.45;;;;;;;;;;5097431;28;20051;-62
2021/05/17 03:01:58;;;;;;;2.28;2.17;;;;;;;;;;5097441;28;20020;-62
2021/05/17 03:04:27;;;;;;;2.65;2.45;;;;;;;;;;5096204;28;20373;-61
2021/05/17 03:06:58;;;;;;;2.75;2.55;;;;;;;;;;5095791;28;20055;-63
2021/05/17 03:09:25;;;;;;;5.32;3.10;;;;;;;;;;5095841;28;20115;-62
2021/05/17 03:11:51;;;;;;;2.78;2.40;;;;;;;;;;5078988;28;20020;-62
2021/05/17 03:14:20;;;;;;;3.28;2.97;;;;;;;;;;5095813;28;20035;-63
2021/05/17 03:16:57;;;;;;;3.50;3.00;;;;;;;;;;5095895;28;20032;-63
2021/05/17 03:19:23;;;;;;;2.78;2.55;;;;;;;;;;5097294;28;20510;-63
2021/05/17 03:21:50;;;;;;;3.10;2.90;;;;;;;;;;5096789;28;20150;-63
2021/05/17 03:24:16;;;;;;;3.55;3.25;;;;;;;;;;5096767;28;20031;-63
2021/05/17 03:26:42;;;;;;;4.72;3.42;;;;;;;;;;5096638;28;20020;-63
2021/05/17 03:29:07;;;;;;;3.88;3.55;;;;;;;;;;5096779;28;20027;-62
2021/05/17 03:31:33;;;;;;;3.80;3.40;;;;;;;;;;5095649;28;20580;-62
2021/05/17 03:33:59;;;;;;;4.47;2.58;;;;;;;;;;5096420;28;20157;-62
2021/05/17 03:36:24;;;;;;;2.95;2.75;;;;;;;;;;5096589;28;20043;-62
2021/05/17 03:38:50;;;;;;;3.00;2.80;;;;;;;;;;5096445;28;20529;-62
2021/05/17 03:41:15;;;;;;;3.00;2.65;;;;;;;;;;5096652;28;20018;-62
2021/05/17 03:43:41;;;;;;;6.78;3.30;;;;;;;;;;5095233;28;20028;-62
2021/05/17 03:46:06;;;;;;;3.88;3.45;;;;;;;;;;5095272;28;20027;-62
2021/05/17 03:48:32;;;;;;;3.70;2.90;;;;;;;;;;5096567;28;20036;-66
2021/05/17 03:50:57;;;;;;;3.10;2.90;;;;;;;;;;5095386;28;20020;-62
2021/05/17 03:53:23;;;;;;;4.10;3.17;;;;;;;;;;5095877;28;20031;-62
2021/05/17 03:55:49;;;;;;;5.22;3.67;;;;;;;;;;5095115;28;20028;-62
2021/05/17 03:58:14;;;;;;;4.18;3.25;;;;;;;;;;5095374;28;20024;-62
2021/05/17 04:00:41;;;;;;;2.95;2.75;;;;;;;;;;5095761;28;20067;-62
2021/05/17 04:03:14;;;;;;;3.55;3.25;;;;;;;;;;5095667;28;20031;-62
2021/05/17 04:13:34;;;;;;;3.22;2.95;;;;;;;;;;5094798;28;20032;-62
2021/05/17 04:16:00;;;;;;;2.72;2.53;;;;;;;;;;5095844;28;20474;-62
2021/05/17 04:18:26;;;;;;;4.00;3.63;;;;;;;;;;5095832;28;20024;-62
2021/05/17 04:20:52;;;;;;;5.20;4.70;;;;;;;;;;5095777;28;20012;-62
2021/05/17 04:23:22;;;;;;;4.45;3.75;;;;;;;;;;5095740;28;20036;-62
2021/05/17 04:25:48;;;;;;;3.00;2.80;;;;;;;;;;5095621;28;20032;-62
2021/05/17 04:28:13;;;;;;;3.30;3.10;;;;;;;;;;5095637;28;20063;-62
2021/05/17 04:30:39;;;;;;;4.18;3.80;;;;;;;;;;5095532;28;20047;-62
2021/05/17 04:33:05;;;;;;;4.05;3.33;;;;;;;;;;5095415;28;20028;-62
2021/05/17 04:35:30;;;;;;;2.95;2.75;;;;;;;;;;5095378;28;20056;-62
2021/05/17 04:37:56;;;;;;;2.75;2.58;;;;;;;;;;5095312;28;20052;-62
2021/05/17 04:40:21;;;;;;;2.75;2.55;;;;;;;;;;5094960;28;20363;-62
2021/05/17 04:42:47;;;;;;;5.82;3.70;;;;;;;;;;5095487;28;20031;-62
2021/05/17 04:45:13;;;;;;;3.72;3.42;;;;;;;;;;5094258;28;20016;-62
2021/05/17 04:47:38;;;;;;;3.47;3.15;;;;;;;;;;5093981;28;20028;-62
2021/05/17 04:50:04;;;;;;;3.35;3.05;;;;;;;;;;5094961;28;20016;-62
2021/05/17 04:52:30;;;;;;;4.15;3.42;;;;;;;;;;5095143;28;20031;-62
2021/05/17 04:54:55;;;;;;;4.10;3.40;;;;;;;;;;5094928;28;20020;-62
2021/05/17 04:57:21;;;;;;;3.58;3.28;;;;;;;;;;5095040;28;20533;-63
2021/05/17 04:59:46;;;;;;;3.83;3.30;;;;;;;;;;5095021;28;20012;-62
2021/05/17 05:02:12;;;;;;;3.05;2.83;;;;;;;;;;5094967;28;20378;-62
2021/05/17 05:04:37;;;;;;;4.50;2.83;;;;;;;;;;5094760;28;20052;-62
2021/05/17 05:07:06;;;;;;;4.13;2.72;;;;;;;;;;5094124;28;20039;-62
2021/05/17 05:09:32;;;;;;;3.47;3.15;;;;;;;;;;5095016;28;20361;-62
2021/05/17 05:11:57;;;;;;;3.47;3.15;;;;;;;;;;5093647;28;20031;-62
2021/05/17 05:14:23;;;;;;;4.15;3.53;;;;;;;;;;5094640;28;20020;-62
2021/05/17 05:16:48;;;;;;;3.17;2.90;;;;;;;;;;5094744;28;20035;-62
2021/05/17 05:19:14;;;;;;;3.17;2.70;;;;;;;;;;5094505;28;20020;-62
2021/05/17 05:21:40;;;;;;;3.10;2.80;;;;;;;;;;5094913;28;20027;-62
2021/05/17 05:24:06;;;;;;;3.22;3.03;;;;;;;;;;5094727;28;20020;-62
2021/05/17 05:27:07;;;;;;;3.83;2.80;;;;;;;;;;5094742;28;20403;-62
2021/05/17 05:29:30;;;;;;;2.80;2.60;;;;;;;;;;5091604;28;20044;-62
2021/05/17 05:32:09;;;;;;;4.03;2.60;;;;;;;;;;5094460;28;20038;-62
2021/05/17 05:34:34;;;;;;;2.58;2.38;;;;;;;;;;5093902;28;20398;-62
2021/05/17 05:37:01;;;;;;;2.47;2.08;;;;;;;;;;5094131;28;20047;-62
2021/05/17 05:39:27;;;;;;;3.28;2.53;;;;;;;;;;5094349;28;20411;-62
2021/05/17 05:41:52;;;;;;;3.00;2.30;;;;;;;;;;5094188;28;20107;-62
2021/05/17 05:44:18;;;;;;;2.40;2.20;;;;;;;;;;5093992;28;20115;-62
2021/05/17 05:46:44;;;;;;;2.38;2.17;;;;;;;;;;5094193;28;20016;-62
2021/05/17 05:49:10;;;;;;;2.75;2.45;;;;;;;;;;5094071;28;20024;-63
2021/05/17 05:51:36;;;;;;;4.38;2.83;;;;;;;;;;5093894;28;20474;-62
2021/05/17 05:54:01;;;;;;;3.03;2.72;;;;;;;;;;5092395;28;20158;-63
2021/05/17 05:56:27;;;;;;;2.83;2.58;;;;;;;;;;5093982;28;20020;-63
2021/05/17 05:58:53;;;;;;;3.50;2.92;;;;;;;;;;5092450;28;20493;-62
2021/05/17 06:01:18;;;;;;;2.90;2.50;;;;;;;;;;5093860;28;20016;-62
2021/05/17 06:03:44;;;;;;;2.97;2.40;;;;;;;;;;5093889;28;20114;-62
2021/05/17 06:06:10;;;;;;;2.10;1.95;;;;;;;;;;5093903;28;20020;-62
2021/05/17 06:08:36;;;;;;;2.65;1.88;;;;;;;;;;5093669;28;20115;-62
2021/05/17 06:11:02;;;;;;;2.13;1.92;;;;;;;;;;5093731;28;20069;-62
2021/05/17 06:13:28;;;;;;;4.00;2.65;;;;;;;;;;5093483;28;20024;-62
2021/05/17 06:15:53;;;;;;;2.53;2.33;;;;;;;;;;5093597;28;20424;-63
2021/05/17 06:18:19;;;;;;;2.83;2.60;;;;;;;;;;5093361;28;20063;-63
2021/05/17 06:20:45;;;;;;;2.67;2.47;;;;;;;;;;5093491;28;20398;-62
2021/05/17 06:23:13;;;;;;;2.65;2.45;;;;;;;;;;5093588;28;20082;-62
2021/05/17 06:25:38;;;;;;;2.80;2.50;;;;;;;;;;5093845;28;20119;-62
2021/05/17 06:28:04;;;;;;;3.58;2.38;;;;;;;;;;5093720;28;20442;-63
2021/05/17 06:30:31;;;;;;;2.90;2.60;;;;;;;;;;5091770;28;20072;-63
2021/05/17 06:32:57;;;;;;;3.83;2.55;;;;;;;;;;5093491;28;20111;-63
2021/05/17 06:35:26;;;;;;;2.83;2.63;;;;;;;;;;5093108;28;20071;-63
2021/05/17 06:37:52;;;;;;;3.00;2.15;;;;;;;;;;5093253;28;20487;-63
2021/05/17 06:40:17;;;;;;;2.92;1.90;;;;;;;;;;5093282;28;20024;-63
2021/05/17 06:42:43;;;;;;;2.03;1.90;;;;;;;;;;5093301;28;20401;-63
2021/05/17 06:45:08;;;;;;;2.45;2.25;;;;;;;;;;5093203;28;20024;-63
2021/05/17 06:47:35;;;;;;;3.10;2.45;;;;;;;;;;5093161;28;20093;-63
2021/05/17 06:50:01;;;;;;;2.72;2.53;;;;;;;;;;5093130;28;20016;-63
2021/05/17 06:52:26;;;;;;;2.10;1.90;;;;;;;;;;5093172;28;20119;-63
2021/05/17 06:55:00;;;;;;;2.22;1.73;;;;;;;;;;5093274;28;20012;-63
2021/05/17 07:00:12;;;;;;;2.70;2.15;;;;;;;;;;5093391;28;20115;-63
2021/05/17 07:02:38;;;;;;;2.20;2.00;;;;;;;;;;5093542;28;20020;-63
2021/05/17 07:05:05;;;;;;;3.15;2.10;;;;;;;;;;5092145;28;20025;-63
2021/05/17 07:07:47;;;;;;;2.53;1.85;;;;;;;;;;5093205;28;20023;-64
2021/05/17 07:13:10;;;;;;;2.25;1.90;;;;;;;;;;5058738;28;20122;-63
2021/05/17 07:15:35;;;;;;;3.33;2.58;;;;;;;;;;5091636;28;20095;-63
2021/05/17 07:18:01;;;;;;;3.60;2.22;;;;;;;;;;5092913;28;20028;-63
2021/05/17 07:26:01;;;;;;;2.05;1.50;;;;;;;;;;5093082;28;20035;-64
2021/05/17 07:28:26;;;;;;;2.97;1.80;;;;;;;;;;5093107;28;20020;-64
2021/05/17 07:30:52;;;;;;;3.17;1.55;;;;;;;;;;5095102;28;20405;-63
2021/05/17 07:33:18;;;;;;;1.42;1.33;;;;;;;;;;5096640;28;20024;-62
2021/05/17 07:35:44;;;;;;;3.20;2.03;;;;;;;;;;5096774;28;20363;-62
2021/05/17 07:38:09;;;;;;;1.83;1.67;;;;;;;;;;5096769;28;20110;-62
2021/05/17 07:40:37;;;;;;;1.80;1.70;;;;;;;;;;5096481;28;20474;-62
2021/05/17 07:43:03;;;;;;;1.75;1.50;;;;;;;;;;5096586;28;20039;-62
2021/05/17 07:45:28;;;;;;;1.67;1.58;;;;;;;;;;5096313;28;20024;-62
2021/05/17 07:47:54;;;;;;;1.95;1.52;;;;;;;;;;5096401;28;20041;-62
2021/05/17 07:50:20;;;;;;;3.03;2.03;;;;;;;;;;5096431;28;20030;-62
2021/05/17 07:52:45;;;;;;;1.92;1.75;;;;;;;;;;5095174;28;20016;-61
2021/05/17 07:55:12;;;;;;;1.98;1.63;;;;;;;;;;5095065;28;20356;-61
2021/05/17 07:57:38;;;;;;;2.05;1.63;;;;;;;;;;5096005;28;20008;-64
2021/05/17 08:00:06;;;;;;;4.22;1.50;;;;;;;;;;5096049;28;20466;-62
2021/05/17 08:02:31;;;;;;;1.92;1.77;;;;;;;;;;5096376;28;20078;-61
2021/05/17 08:04:57;;;;;;;2.05;1.95;;;;;;;;;;5095027;28;20381;-61
2021/05/17 08:07:22;;;;;;;2.85;1.92;;;;;;;;;;5096350;28;20050;-62
2021/05/17 08:09:49;;;;;;;1.73;1.60;;;;;;;;;;5094642;28;20119;-62
2021/05/17 08:12:15;;;;;;;1.58;1.38;;;;;;;;;;5096083;28;20433;-61
2021/05/17 08:14:40;;;;;;;1.55;1.40;;;;;;;;;;5095945;28;20059;-61
2021/05/17 08:17:06;;;;;;;1.52;1.42;;;;;;;;;;5095801;28;20055;-61
2021/05/17 08:19:32;;;;;;;1.60;1.50;;;;;;;;;;5094100;28;20027;-61
2021/05/17 08:21:58;;;;;;;2.20;1.50;;;;;;;;;;5095943;28;20024;-62
2021/05/17 08:24:24;;;;;;;2.05;1.27;;;;;;;;;;5095693;28;20031;-61
2021/05/17 08:26:50;;;;;;;1.45;1.25;;;;;;;;;;5095896;28;20083;-61
2021/05/17 08:29:15;;;;;;;1.58;1.38;;;;;;;;;;5095605;28;20176;-62
2021/05/17 08:31:44;;;;;;;2.15;1.35;;;;;;;;;;5095487;28;20020;-62
2021/05/17 08:34:09;;;;;;;0.95;0.95;;;;;;;;;;5094189;28;20132;-62
2021/05/17 08:36:35;;;;;;;0.98;0.90;;;;;;;;;;5095539;28;20063;-62
2021/05/17 08:39:01;;;;;;;1.35;0.88;;;;;;;;;;5094091;28;20056;-62
2021/05/17 08:41:27;;;;;;;1.10;1.10;;;;;;;;;;5095195;28;20018;-62
2021/05/17 08:43:53;;;;;;;1.20;1.02;;;;;;;;;;5095138;28;20030;-61
2021/05/17 08:46:19;;;;;;;1.08;0.98;;;;;;;;;;5095260;28;20024;-62
2021/05/17 08:48:48;;;;;;;1.65;1.50;;;;;;;;;;5095290;28;20077;-62
2021/05/17 08:51:16;;;;;;;1.20;1.20;;;;;;;;;;5095215;28;20098;-61
2021/05/17 08:53:43;;;;;;;2.38;1.20;;;;;;;;;;5094979;28;20048;-61
2021/05/17 08:56:08;;;;;;;1.20;1.10;;;;;;;;;;5094815;28;20008;-62
2021/05/17 08:58:34;;;;;;;2.53;1.02;;;;;;;;;;5094870;28;20586;-62
2021/05/17 09:01:03;;;;;;;1.10;0.90;;;;;;;;;;5094624;28;20055;-62
2021/05/17 09:03:30;;;;;;;2.88;1.05;;;;;;;;;;5094667;28;20055;-62
2021/05/17 09:05:55;;;;;;;1.10;1.00;;;;;;;;;;5094957;28;20052;-62
2021/05/17 09:08:24;;;;;;;1.00;1.00;;;;;;;;;;5094923;28;20026;-62
2021/05/17 09:10:50;;;;;;;1.40;1.10;;;;;;;;;;5094971;28;20012;-62
2021/05/17 09:13:16;;;;;;;2.35;1.25;;;;;;;;;;5095232;28;20474;-62
2021/05/17 09:15:43;;;;;;;1.35;1.00;;;;;;;;;;5094670;28;20111;-62
2021/05/17 09:18:16;;;;;;;1.20;1.10;;;;;;;;;;5094830;28;20030;-61
2021/05/17 09:20:43;;;;;;;2.45;1.25;;;;;;;;;;5094724;28;20028;-62
2021/05/17 09:23:08;;;;;;;2.17;1.00;;;;;;;;;;5093247;28;20016;-62
2021/05/17 09:25:34;;;;;;;1.63;1.40;;;;;;;;;;5094811;28;20119;-62
2021/05/17 09:28:00;;;;;;;2.60;1.10;;;;;;;;;;5094601;28;20366;-62
2021/05/17 09:30:26;;;;;;;2.00;1.33;;;;;;;;;;5094460;28;20020;-63
2021/05/17 09:32:51;;;;;;;1.73;1.13;;;;;;;;;;5093015;28;20370;-62
2021/05/17 09:35:19;;;;;;;1.35;1.20;;;;;;;;;;5092696;28;20042;-62
2021/05/17 09:37:48;;;;;;;1.30;1.20;;;;;;;;;;5093139;28;20032;-61
2021/05/17 09:40:24;;;;;;;3.55;1.10;;;;;;;;;;5094316;28;20490;-61
2021/05/17 09:43:03;;;;;;;2.33;0.98;;;;;;;;;;5094317;28;20724;-61
2021/05/17 09:45:33;;;;;;;1.15;0.90;;;;;;;;;;5094141;28;20415;-62
2021/05/17 09:47:59;;;;;;;0.77;0.77;;;;;;;;;;5093904;28;20024;-61
2021/05/17 09:50:24;;;;;;;1.10;1.00;;;;;;;;;;5092572;28;20026;-61
2021/05/17 09:52:50;;;;;;;1.75;1.00;;;;;;;;;;5093470;28;20070;-61
2021/05/17 09:55:15;;;;;;;1.02;0.98;;;;;;;;;;5094033;28;20020;-61
2021/05/17 09:57:43;;;;;;;1.00;0.90;;;;;;;;;;5094113;28;20024;-62
2021/05/17 10:00:09;;;;;;;2.15;1.13;;;;;;;;;;5092934;28;20027;-62
2021/05/17 10:02:37;;;;;;;1.00;1.00;;;;;;;;;;5094054;28;20114;-62
2021/05/17 10:05:16;;;;;;;1.15;1.10;;;;;;;;;;5093841;28;20074;-62
2021/05/17 10:07:46;;;;;;;1.38;1.17;;;;;;;;;;5091903;28;20035;-62
2021/05/17 10:10:12;;;;;;;2.45;1.10;;;;;;;;;;5092566;28;20032;-61
2021/05/17 10:12:37;;;;;;;1.38;1.10;;;;;;;;;;5093759;28;20362;-62
2021/05/17 10:15:04;;;;;;;1.13;0.88;;;;;;;;;;5093465;28;20028;-62
2021/05/17 10:17:31;;;;;;;0.77;0.73;;;;;;;;;;5093492;28;20020;-62
2021/05/17 10:19:57;;;;;;;1.13;1.00;;;;;;;;;;5093491;28;20032;-62
2021/05/17 10:22:23;;;;;;;1.20;1.10;;;;;;;;;;5092248;28;20026;-61
2021/05/17 10:24:49;;;;;;;1.73;1.13;;;;;;;;;;5093432;28;20046;-61
2021/05/17 10:27:15;;;;;;;1.35;1.25;;;;;;;;;;5093375;28;20020;-62
2021/05/17 10:29:40;;;;;;;3.05;1.58;;;;;;;;;;5093264;28;20035;-62
2021/05/17 10:32:08;;;;;;;1.75;1.60;;;;;;;;;;5093527;28;20026;-62
2021/05/17 10:34:47;;;;;;;2.42;1.48;;;;;;;;;;5092958;28;20079;-62
2021/05/17 10:37:17;;;;;;;1.65;1.55;;;;;;;;;;5092020;28;20036;-62
2021/05/17 10:39:45;;;;;;;2.38;1.52;;;;;;;;;;5093229;28;20036;-62
2021/05/17 10:47:47;;;;;;;1.92;1.40;;;;;;;;;;5093911;28;20028;-63
2021/05/17 10:50:14;;;;;;;1.58;1.10;;;;;;;;;;5093479;28;20039;-62
2021/05/17 10:52:40;;;;;;;3.17;1.77;;;;;;;;;;5093525;28;20020;-62
2021/05/17 10:55:07;;;;;;;1.88;1.52;;;;;;;;;;5093325;28;20086;-62
2021/05/17 10:57:41;;;;;;;1.85;1.60;;;;;;;;;;5093199;28;20077;-62
2021/05/17 11:00:24;;;;;;;3.30;2.17;;;;;;;;;;5093157;28;20027;-62
2021/05/17 11:03:07;;;;;;;1.67;1.58;;;;;;;;;;5093141;28;20362;-62
2021/05/17 11:05:33;;;;;;;3.38;2.00;;;;;;;;;;5096793;28;20028;-62
2021/05/17 11:08:01;;;;;;;3.15;1.63;;;;;;;;;;5097270;28;20527;-62
2021/05/17 11:10:32;;;;;;;1.55;1.10;;;;;;;;;;5097193;28;20093;-62
2021/05/17 11:13:01;;;;;;;1.27;1.17;;;;;;;;;;5097132;28;20110;-62
2021/05/17 11:15:47;;;;;;;2.30;2.03;;;;;;;;;;5097241;28;20442;-63
2021/05/17 11:18:13;;;;;;;2.50;1.60;;;;;;;;;;5089761;28;20043;-62
2021/05/17 11:20:45;;;;;;;2.72;1.83;;;;;;;;;;5096918;28;20024;-62
2021/05/17 11:23:12;;;;;;;4.38;2.58;;;;;;;;;;5097151;28;20447;-63
2021/05/17 11:26:04;;;;;;;5.22;3.08;;;;;;;;;;5096875;28;20016;-64
2021/05/17 11:31:15;;;;;;;5.45;3.67;;;;;;;;;;5096672;28;20024;-62
2021/05/17 11:33:50;;;;;;;5.57;3.08;;;;;;;;;;5095207;28;20024;-63
2021/05/17 11:36:17;;;;;;;5.03;2.78;;;;;;;;;;5096432;28;20075;-61
2021/05/17 11:39:01;;;;;;;3.40;2.13;;;;;;;;;;5095122;28;20032;-61
2021/05/17 11:41:31;;;;;;;3.70;2.47;;;;;;;;;;5096420;28;20060;-62
2021/05/17 11:44:03;;;;;;;2.38;2.17;;;;;;;;;;5096678;28;20059;-62
2021/05/17 11:46:34;;;;;;;2.30;2.10;;;;;;;;;;5096456;28;20039;-62
2021/05/17 11:49:00;;;;;;;2.33;1.77;;;;;;;;;;5096561;28;20024;-62
2021/05/17 11:51:26;;;;;;;3.47;1.92;;;;;;;;;;5096293;28;20489;-61
2021/05/17 11:53:52;;;;;;;4.68;2.03;;;;;;;;;;5096346;28;20039;-61
2021/05/17 11:56:18;;;;;;;3.25;1.90;;;;;;;;;;5096068;28;20094;-61
2021/05/17 11:58:43;;;;;;;1.42;1.33;;;;;;;;;;5094871;28;20028;-61
2021/05/17 12:01:18;;;;;;;1.52;1.40;;;;;;;;;;5095036;28;20028;-61
2021/05/17 12:03:44;;;;;;;1.42;1.27;;;;;;;;;;5095894;28;20025;-61
2021/05/17 12:06:10;;;;;;;1.50;1.30;;;;;;;;;;5096089;28;20022;-62
2021/05/17 12:08:39;;;;;;;2.72;1.30;;;;;;;;;;5095966;28;20073;-61
2021/05/17 12:11:11;;;;;;;2.97;1.50;;;;;;;;;;5095781;28;20045;-62
2021/05/17 12:13:46;;;;;;;1.58;1.40;;;;;;;;;;5095885;28;20032;-62
2021/05/17 12:16:25;;;;;;;2.95;1.60;;;;;;;;;;5095127;28;20049;-61
2021/05/17 12:19:00;;;;;;;2.65;1.75;;;;;;;;;;5095771;28;20466;-61
2021/05/17 12:21:35;;;;;;;2.88;2.00;;;;;;;;;;5095725;28;20052;-61
2021/05/17 12:24:02;;;;;;;3.40;2.45;;;;;;;;;;5095740;28;20074;-61
2021/05/17 12:26:47;;;;;;;4.53;2.80;;;;;;;;;;5095816;28;20031;-62
2021/05/17 12:29:13;;;;;;;2.50;2.30;;;;;;;;;;5095622;28;20501;-61
2021/05/17 12:31:38;;;;;;;7.40;2.30;;;;;;;;;;5095531;28;20019;-61
2021/05/17 12:34:07;;;;;;;2.10;1.95;;;;;;;;;;5094886;28;20443;-62
2021/05/17 12:36:33;;;;;;;2.85;2.22;;;;;;;;;;5095432;28;20390;-62
2021/05/17 12:38:58;;;;;;;4.45;2.20;;;;;;;;;;5095195;28;20522;-62
2021/05/17 12:41:38;;;;;;;2.65;2.40;;;;;;;;;;5095399;28;20266;-62
2021/05/17 12:44:03;;;;;;;2.03;1.90;;;;;;;;;;5095363;28;20110;-62
2021/05/17 12:46:29;;;;;;;3.15;1.77;;;;;;;;;;5095155;28;20047;-61
2021/05/17 12:48:56;;;;;;;1.77;1.58;;;;;;;;;;5095007;28;20028;-62
2021/05/17 12:51:27;;;;;;;2.60;1.58;;;;;;;;;;5095024;28;20390;-61
2021/05/17 12:53:53;;;;;;;1.88;1.58;;;;;;;;;;5095043;28;20032;-61
2021/05/17 12:56:33;;;;;;;2.00;1.58;;;;;;;;;;5095231;28;20032;-61
2021/05/17 12:59:24;;;;;;;1.88;1.40;;;;;;;;;;5095231;28;20362;-61
2021/05/17 13:01:50;;;;;;;2.55;1.55;;;;;;;;;;5092869;28;20119;-61
2021/05/17 13:04:23;;;;;;;2.47;1.45;;;;;;;;;;5095285;28;20138;-62
2021/05/17 13:06:58;;;;;;;1.52;1.40;;;;;;;;;;5094817;28;20032;-61
2021/05/17 13:09:24;;;;;;;2.00;1.30;;;;;;;;;;5094855;28;20489;-61
2021/05/17 13:11:53;;;;;;;1.15;1.10;;;;;;;;;;5094650;28;20053;-61
2021/05/17 13:14:23;;;;;;;1.42;0.90;;;;;;;;;;5094774;28;20024;-61
2021/05/17 13:16:48;;;;;;;1.20;1.10;;;;;;;;;;5094681;28;20031;-62
2021/05/17 13:30:11;;;;;;;2.95;1.80;;;;;;;;;;5093135;28;20157;-61
2021/05/17 13:32:38;;;;;;;5.75;3.53;;;;;;;;;;5094309;28;20474;-61
2021/05/17 13:35:05;;;;;;;9.55;4.80;;;;;;;;;;5093736;28;20040;-61
2021/05/17 13:37:30;;;;;;;9.27;4.63;;;;;;;;;;5094077;28;20024;-61
2021/05/17 13:39:56;;;;;;;3.30;2.42;;;;;;;;;;5092909;28;20068;-62
2021/05/17 13:42:21;;;;;;;3.28;2.67;;;;;;;;;;5092692;28;20066;-61
2021/05/17 13:44:47;;;;;;;4.50;2.42;;;;;;;;;;5093997;28;20035;-61
2021/05/17 13:47:13;;;;;;;2.65;2.30;;;;;;;;;;5093786;28;20111;-61
2021/05/17 13:49:38;;;;;;;6.18;2.28;;;;;;;;;;5093898;28;20020;-62
2021/05/17 13:52:04;;;;;;;3.85;2.30;;;;;;;;;;5094282;28;20122;-62
2021/05/17 13:54:30;;;;;;;2.83;2.42;;;;;;;;;;5094152;28;20067;-62
2021/05/17 13:56:55;;;;;;;4.25;2.70;;;;;;;;;;5094244;28;20036;-62
2021/05/17 13:59:21;;;;;;;2.97;2.55;;;;;;;;;;5094105;28;20019;-62
2021/05/17 14:01:46;;;;;;;3.60;2.78;;;;;;;;;;5093815;28;20032;-62
2021/05/17 14:04:12;;;;;;;3.97;3.05;;;;;;;;;;5093907;28;20030;-62
2021/05/17 14:06:37;;;;;;;4.65;3.28;;;;;;;;;;5093172;28;20038;-62
2021/05/17 14:09:03;;;;;;;5.65;3.50;;;;;;;;;;5093183;28;20098;-62
2021/05/17 14:11:29;;;;;;;3.45;2.60;;;;;;;;;;5093706;28;20043;-62
2021/05/17 14:13:54;;;;;;;3.50;2.97;;;;;;;;;;5093995;28;20020;-62
2021/05/17 14:16:20;;;;;;;5.15;2.85;;;;;;;;;;5094120;28;20055;-62
2021/05/17 14:18:46;;;;;;;3.75;3.22;;;;;;;;;;5093944;28;20450;-62
2021/05/17 14:21:11;;;;;;;5.65;4.10;;;;;;;;;;5093604;28;20393;-62
2021/05/17 14:23:37;;;;;;;11.70;6.90;;;;;;;;;;5092469;28;20035;-62
2021/05/17 14:26:03;;;;;;;5.30;2.97;;;;;;;;;;5092381;28;20503;-62
2021/05/17 14:28:28;;;;;;;4.20;3.38;;;;;;;;;;5093449;28;20104;-62
2021/05/17 14:30:55;;;;;;;11.65;6.20;;;;;;;;;;5093568;28;20104;-62
2021/05/17 14:33:21;;;;;;;4.60;2.60;;;;;;;;;;5093422;28;20481;-63
2021/05/17 14:35:46;;;;;;;2.70;2.50;;;;;;;;;;5091986;28;20048;-63
2021/05/17 14:38:12;;;;;;;3.20;2.35;;;;;;;;;;5094186;28;20375;-62
2021/05/17 14:40:37;;;;;;;2.85;2.40;;;;;;;;;;5100158;28;20043;-62
2021/05/17 14:43:03;;;;;;;3.80;2.40;;;;;;;;;;5099950;28;20059;-62
2021/05/17 14:45:29;;;;;;;3.53;2.22;;;;;;;;;;5098875;28;20115;-62
2021/05/17 14:47:55;;;;;;;2.10;1.90;;;;;;;;;;5100126;28;20020;-62
2021/05/17 14:50:21;;;;;;;1.95;1.77;;;;;;;;;;5100061;28;20486;-62
2021/05/17 14:52:46;;;;;;;1.90;1.80;;;;;;;;;;5099996;28;20059;-62
2021/05/17 14:55:12;;;;;;;1.90;1.77;;;;;;;;;;5099959;28;20115;-62
2021/05/17 14:57:38;;;;;;;2.10;1.90;;;;;;;;;;5100180;28;20055;-62
2021/05/17 15:00:05;;;;;;;2.38;1.90;;;;;;;;;;5099966;28;20062;-63
2021/05/17 15:02:30;;;;;;;2.67;2.00;;;;;;;;;;5100088;28;20008;-62
2021/05/17 15:04:56;;;;;;;2.47;1.75;;;;;;;;;;5100181;28;20343;-63
2021/05/17 15:07:21;;;;;;;2.22;1.80;;;;;;;;;;5099760;28;20035;-62
2021/05/17 15:09:47;;;;;;;1.60;1.45;;;;;;;;;;5100139;28;20039;-62
2021/05/17 15:12:12;;;;;;;2.13;1.88;;;;;;;;;;5100075;28;20073;-62
2021/05/17 15:14:38;;;;;;;7.80;6.03;;;;;;;;;;5100076;28;20485;-62
2021/05/17 15:17:03;;;;;;;3.58;2.22;;;;;;;;;;5098377;28;20065;-62
2021/05/17 15:19:29;;;;;;;1.88;1.77;;;;;;;;;;5099823;28;20028;-62
2021/05/17 15:21:54;;;;;;;5.50;3.80;;;;;;;;;;5099859;28;20141;-62
2021/05/17 15:24:20;;;;;;;3.00;2.72;;;;;;;;;;5098513;28;20161;-63